sensor_id;sensor_type;location;lat;lon;timestamp;temperature;humidity
69595;DHT22;56800;52.142;5.364;2023-04-24T00:01:33;10.60;79.00
69595;DHT22;56800;52.142;5.364;2023-04-24T00:04:00;10.50;79.00
69595;DHT22;56800;52.142;5.364;2023-04-24T00:06:28;10.50;79.20
69595;DHT22;56800;52.142;5.364;2023-04-24T00:09:00;10.50;79.10
69595;DHT22;56800;52.142;5.364;2023-04-24T00:11:27;10.50;79.30
69595;DHT22;56800;52.142;5.364;2023-04-24T00:13:55;10.40;79.40
69595;DHT22;56800;52.142;5.364;2023-04-24T00:16:22;10.40;79.40
69595;DHT22;56800;52.142;5.364;2023-04-24T00:18:49;10.40;79.40
69595;DHT22;56800;52.142;5.364;2023-04-24T00:21:15;10.40;79.40
69595;DHT22;56800;52.142;5.364;2023-04-24T00:23:45;10.40;79.40
69595;DHT22;56800;52.142;5.364;2023-04-24T00:26:12;10.30;79.30
69595;DHT22;56800;52.142;5.364;2023-04-24T00:28:39;10.30;79.40
69595;DHT22;56800;52.142;5.364;2023-04-24T00:31:05;10.30;79.40
69595;DHT22;56800;52.142;5.364;2023-04-24T00:33:32;10.30;79.50
69595;DHT22;56800;52.142;5.364;2023-04-24T00:35:59;10.30;79.60
69595;DHT22;56800;52.142;5.364;2023-04-24T00:38:25;10.30;79.50
69595;DHT22;56800;52.142;5.364;2023-04-24T00:40:52;10.30;79.60
69595;DHT22;56800;52.142;5.364;2023-04-24T00:43:20;10.30;79.50
69595;DHT22;56800;52.142;5.364;2023-04-24T00:45:48;10.30;79.70
69595;DHT22;56800;52.142;5.364;2023-04-24T00:48:15;10.20;79.60
69595;DHT22;56800;52.142;5.364;2023-04-24T00:50:42;10.30;79.80
69595;DHT22;56800;52.142;5.364;2023-04-24T00:53:09;10.20;79.80
69595;DHT22;56800;52.142;5.364;2023-04-24T00:55:36;10.20;79.80
69595;DHT22;56800;52.142;5.364;2023-04-24T00:58:04;10.20;79.80
69595;DHT22;56800;52.142;5.364;2023-04-24T01:00:31;10.20;79.80
69595;DHT22;56800;52.142;5.364;2023-04-24T01:02:59;10.20;79.90
69595;DHT22;56800;52.142;5.364;2023-04-24T01:05:27;10.20;80.00
69595;DHT22;56800;52.142;5.364;2023-04-24T01:07:54;10.20;80.00
69595;DHT22;56800;52.142;5.364;2023-04-24T01:10:20;10.20;80.00
69595;DHT22;56800;52.142;5.364;2023-04-24T01:12:47;10.20;80.10
69595;DHT22;56800;52.142;5.364;2023-04-24T01:15:14;10.30;80.10
69595;DHT22;56800;52.142;5.364;2023-04-24T01:17:40;10.30;80.10
69595;DHT22;56800;52.142;5.364;2023-04-24T01:20:08;10.30;80.10
69595;DHT22;56800;52.142;5.364;2023-04-24T01:22:35;10.30;80.20
69595;DHT22;56800;52.142;5.364;2023-04-24T01:25:03;10.20;80.20
69595;DHT22;56800;52.142;5.364;2023-04-24T01:27:30;10.30;80.40
69595;DHT22;56800;52.142;5.364;2023-04-24T01:29:57;10.30;80.40
69595;DHT22;56800;52.142;5.364;2023-04-24T01:32:25;10.30;80.30
69595;DHT22;56800;52.142;5.364;2023-04-24T01:34:52;10.30;80.40
69595;DHT22;56800;52.142;5.364;2023-04-24T01:37:18;10.30;80.40
69595;DHT22;56800;52.142;5.364;2023-04-24T01:39:45;10.40;80.50
69595;DHT22;56800;52.142;5.364;2023-04-24T01:42:13;10.40;80.50
69595;DHT22;56800;52.142;5.364;2023-04-24T01:44:40;10.40;80.40
69595;DHT22;56800;52.142;5.364;2023-04-24T01:47:07;10.40;80.40
69595;DHT22;56800;52.142;5.364;2023-04-24T01:49:34;10.40;80.30
69595;DHT22;56800;52.142;5.364;2023-04-24T01:52:01;10.40;80.30
69595;DHT22;56800;52.142;5.364;2023-04-24T01:54:27;10.40;80.30
69595;DHT22;56800;52.142;5.364;2023-04-24T01:56:54;10.40;80.20
69595;DHT22;56800;52.142;5.364;2023-04-24T01:59:21;10.40;80.20
69595;DHT22;56800;52.142;5.364;2023-04-24T02:01:49;10.40;80.30
69595;DHT22;56800;52.142;5.364;2023-04-24T02:04:16;10.40;80.30
69595;DHT22;56800;52.142;5.364;2023-04-24T02:06:43;10.40;80.40
69595;DHT22;56800;52.142;5.364;2023-04-24T02:09:10;10.40;80.40
69595;DHT22;56800;52.142;5.364;2023-04-24T02:11:37;10.50;80.30
69595;DHT22;56800;52.142;5.364;2023-04-24T02:14:03;10.50;80.40
69595;DHT22;56800;52.142;5.364;2023-04-24T02:16:30;10.50;80.40
69595;DHT22;56800;52.142;5.364;2023-04-24T02:18:59;10.50;80.40
69595;DHT22;56800;52.142;5.364;2023-04-24T02:21:25;10.50;80.30
69595;DHT22;56800;52.142;5.364;2023-04-24T02:23:54;10.50;80.30
69595;DHT22;56800;52.142;5.364;2023-04-24T02:26:20;10.50;80.20
69595;DHT22;56800;52.142;5.364;2023-04-24T02:28:47;10.50;80.20
69595;DHT22;56800;52.142;5.364;2023-04-24T02:31:14;10.50;80.20
69595;DHT22;56800;52.142;5.364;2023-04-24T02:33:41;10.50;80.10
69595;DHT22;56800;52.142;5.364;2023-04-24T02:36:07;10.50;80.00
69595;DHT22;56800;52.142;5.364;2023-04-24T02:38:34;10.50;80.00
69595;DHT22;56800;52.142;5.364;2023-04-24T02:41:01;10.50;80.00
69595;DHT22;56800;52.142;5.364;2023-04-24T02:43:28;10.50;80.00
69595;DHT22;56800;52.142;5.364;2023-04-24T02:45:55;10.50;80.00
69595;DHT22;56800;52.142;5.364;2023-04-24T02:48:21;10.50;80.00
69595;DHT22;56800;52.142;5.364;2023-04-24T02:50:48;10.50;80.00
69595;DHT22;56800;52.142;5.364;2023-04-24T02:53:15;10.50;80.00
69595;DHT22;56800;52.142;5.364;2023-04-24T02:55:41;10.50;80.00
69595;DHT22;56800;52.142;5.364;2023-04-24T02:58:08;10.50;80.70
69595;DHT22;56800;52.142;5.364;2023-04-24T03:00:35;10.50;80.10
69595;DHT22;56800;52.142;5.364;2023-04-24T03:03:01;10.50;80.00
69595;DHT22;56800;52.142;5.364;2023-04-24T03:05:29;10.50;80.00
69595;DHT22;56800;52.142;5.364;2023-04-24T03:07:57;10.50;80.10
69595;DHT22;56800;52.142;5.364;2023-04-24T03:10:24;10.50;80.20
69595;DHT22;56800;52.142;5.364;2023-04-24T03:12:50;10.50;80.30
69595;DHT22;56800;52.142;5.364;2023-04-24T03:15:17;10.50;80.20
69595;DHT22;56800;52.142;5.364;2023-04-24T03:17:44;10.60;80.30
69595;DHT22;56800;52.142;5.364;2023-04-24T03:20:12;10.50;80.20
69595;DHT22;56800;52.142;5.364;2023-04-24T03:22:39;10.50;80.20
69595;DHT22;56800;52.142;5.364;2023-04-24T03:25:06;10.50;80.10
69595;DHT22;56800;52.142;5.364;2023-04-24T03:27:34;10.50;80.10
69595;DHT22;56800;52.142;5.364;2023-04-24T03:30:02;10.50;80.00
69595;DHT22;56800;52.142;5.364;2023-04-24T03:32:28;10.50;80.10
69595;DHT22;56800;52.142;5.364;2023-04-24T03:34:55;10.50;80.00
69595;DHT22;56800;52.142;5.364;2023-04-24T03:37:22;10.50;79.90
69595;DHT22;56800;52.142;5.364;2023-04-24T03:39:48;10.40;80.00
69595;DHT22;56800;52.142;5.364;2023-04-24T03:42:15;10.40;79.90
69595;DHT22;56800;52.142;5.364;2023-04-24T03:44:42;10.50;80.00
69595;DHT22;56800;52.142;5.364;2023-04-24T03:47:08;10.50;80.00
69595;DHT22;56800;52.142;5.364;2023-04-24T03:49:35;10.50;80.00
69595;DHT22;56800;52.142;5.364;2023-04-24T03:52:02;10.50;80.10
69595;DHT22;56800;52.142;5.364;2023-04-24T03:54:29;10.50;80.00
69595;DHT22;56800;52.142;5.364;2023-04-24T03:56:55;10.50;79.80
69595;DHT22;56800;52.142;5.364;2023-04-24T03:59:22;10.50;79.70
69595;DHT22;56800;52.142;5.364;2023-04-24T04:01:48;10.50;79.70
69595;DHT22;56800;52.142;5.364;2023-04-24T04:04:15;10.40;79.70
69595;DHT22;56800;52.142;5.364;2023-04-24T04:06:43;10.40;79.70
69595;DHT22;56800;52.142;5.364;2023-04-24T04:09:10;10.40;79.70
69595;DHT22;56800;52.142;5.364;2023-04-24T04:11:37;10.40;79.70
69595;DHT22;56800;52.142;5.364;2023-04-24T04:14:04;10.40;79.60
69595;DHT22;56800;52.142;5.364;2023-04-24T04:16:31;10.40;79.60
69595;DHT22;56800;52.142;5.364;2023-04-24T04:18:58;10.40;79.50
69595;DHT22;56800;52.142;5.364;2023-04-24T04:21:25;10.40;79.60
69595;DHT22;56800;52.142;5.364;2023-04-24T04:23:53;10.40;79.70
69595;DHT22;56800;52.142;5.364;2023-04-24T04:26:20;10.40;79.70
69595;DHT22;56800;52.142;5.364;2023-04-24T04:28:47;10.40;79.70
69595;DHT22;56800;52.142;5.364;2023-04-24T04:31:15;10.40;79.60
69595;DHT22;56800;52.142;5.364;2023-04-24T04:33:42;10.40;80.40
69595;DHT22;56800;52.142;5.364;2023-04-24T04:36:08;10.40;79.50
69595;DHT22;56800;52.142;5.364;2023-04-24T04:38:35;10.40;79.50
69595;DHT22;56800;52.142;5.364;2023-04-24T04:41:03;10.40;79.50
69595;DHT22;56800;52.142;5.364;2023-04-24T04:43:30;10.40;79.50
69595;DHT22;56800;52.142;5.364;2023-04-24T04:45:58;10.40;79.50
69595;DHT22;56800;52.142;5.364;2023-04-24T04:48:24;10.40;79.40
69595;DHT22;56800;52.142;5.364;2023-04-24T04:50:51;10.40;79.40
69595;DHT22;56800;52.142;5.364;2023-04-24T04:53:17;10.40;79.50
69595;DHT22;56800;52.142;5.364;2023-04-24T04:55:44;10.40;80.20
69595;DHT22;56800;52.142;5.364;2023-04-24T04:58:12;10.50;79.50
69595;DHT22;56800;52.142;5.364;2023-04-24T05:00:39;10.50;79.40
69595;DHT22;56800;52.142;5.364;2023-04-24T05:03:06;10.50;79.40
69595;DHT22;56800;52.142;5.364;2023-04-24T05:05:47;10.50;79.50
69595;DHT22;56800;52.142;5.364;2023-04-24T05:08:13;10.50;79.60
69595;DHT22;56800;52.142;5.364;2023-04-24T05:10:43;10.50;79.50
69595;DHT22;56800;52.142;5.364;2023-04-24T05:13:10;10.50;79.50
69595;DHT22;56800;52.142;5.364;2023-04-24T05:15:39;10.50;79.50
69595;DHT22;56800;52.142;5.364;2023-04-24T05:18:06;10.50;79.50
69595;DHT22;56800;52.142;5.364;2023-04-24T05:20:33;10.50;79.60
69595;DHT22;56800;52.142;5.364;2023-04-24T05:23:00;10.50;79.70
69595;DHT22;56800;52.142;5.364;2023-04-24T05:25:26;10.60;79.80
69595;DHT22;56800;52.142;5.364;2023-04-24T05:27:53;10.60;79.80
69595;DHT22;56800;52.142;5.364;2023-04-24T05:30:20;10.60;79.80
69595;DHT22;56800;52.142;5.364;2023-04-24T05:32:47;10.60;79.80
69595;DHT22;56800;52.142;5.364;2023-04-24T05:35:14;10.60;79.90
69595;DHT22;56800;52.142;5.364;2023-04-24T05:37:40;10.60;79.80
69595;DHT22;56800;52.142;5.364;2023-04-24T05:40:08;10.60;79.80
69595;DHT22;56800;52.142;5.364;2023-04-24T05:42:35;10.50;79.80
69595;DHT22;56800;52.142;5.364;2023-04-24T05:45:02;10.60;79.80
69595;DHT22;56800;52.142;5.364;2023-04-24T05:47:30;10.50;79.80
69595;DHT22;56800;52.142;5.364;2023-04-24T05:49:56;10.50;79.70
69595;DHT22;56800;52.142;5.364;2023-04-24T05:52:23;10.50;79.60
69595;DHT22;56800;52.142;5.364;2023-04-24T05:54:50;10.40;79.70
69595;DHT22;56800;52.142;5.364;2023-04-24T05:57:16;10.40;79.70
69595;DHT22;56800;52.142;5.364;2023-04-24T05:59:43;10.40;79.70
69595;DHT22;56800;52.142;5.364;2023-04-24T06:02:10;10.30;79.70
69595;DHT22;56800;52.142;5.364;2023-04-24T06:04:37;10.40;79.70
69595;DHT22;56800;52.142;5.364;2023-04-24T06:07:04;10.40;79.80
69595;DHT22;56800;52.142;5.364;2023-04-24T06:09:31;10.30;79.80
69595;DHT22;56800;52.142;5.364;2023-04-24T06:11:58;10.30;79.80
69595;DHT22;56800;52.142;5.364;2023-04-24T06:14:26;10.30;79.90
69595;DHT22;56800;52.142;5.364;2023-04-24T06:16:52;10.30;79.80
69595;DHT22;56800;52.142;5.364;2023-04-24T06:19:19;10.30;79.90
69595;DHT22;56800;52.142;5.364;2023-04-24T06:21:46;10.30;79.80
69595;DHT22;56800;52.142;5.364;2023-04-24T06:24:14;10.20;79.70
69595;DHT22;56800;52.142;5.364;2023-04-24T06:26:42;10.20;79.70
69595;DHT22;56800;52.142;5.364;2023-04-24T06:29:09;10.20;79.70
69595;DHT22;56800;52.142;5.364;2023-04-24T06:31:35;10.20;79.70
69595;DHT22;56800;52.142;5.364;2023-04-24T06:34:04;10.20;79.70
69595;DHT22;56800;52.142;5.364;2023-04-24T06:36:31;10.10;79.70
69595;DHT22;56800;52.142;5.364;2023-04-24T06:38:58;10.00;79.90
69595;DHT22;56800;52.142;5.364;2023-04-24T06:41:28;10.00;80.10
69595;DHT22;56800;52.142;5.364;2023-04-24T06:43:55;9.90;80.10
69595;DHT22;56800;52.142;5.364;2023-04-24T06:46:22;9.90;80.20
69595;DHT22;56800;52.142;5.364;2023-04-24T06:48:56;9.80;80.40
69595;DHT22;56800;52.142;5.364;2023-04-24T06:51:24;9.80;80.40
69595;DHT22;56800;52.142;5.364;2023-04-24T06:53:55;9.80;80.50
69595;DHT22;56800;52.142;5.364;2023-04-24T06:56:25;9.80;80.50
69595;DHT22;56800;52.142;5.364;2023-04-24T06:58:53;9.80;80.60
69595;DHT22;56800;52.142;5.364;2023-04-24T07:01:20;9.70;80.60
69595;DHT22;56800;52.142;5.364;2023-04-24T07:03:47;9.70;80.70
69595;DHT22;56800;52.142;5.364;2023-04-24T07:06:14;9.70;80.80
69595;DHT22;56800;52.142;5.364;2023-04-24T07:08:43;9.60;80.70
69595;DHT22;56800;52.142;5.364;2023-04-24T07:11:10;9.60;80.80
69595;DHT22;56800;52.142;5.364;2023-04-24T07:13:37;9.60;80.90
69595;DHT22;56800;52.142;5.364;2023-04-24T07:16:08;9.60;81.00
69595;DHT22;56800;52.142;5.364;2023-04-24T07:18:35;9.50;80.90
69595;DHT22;56800;52.142;5.364;2023-04-24T07:21:04;9.50;80.80
69595;DHT22;56800;52.142;5.364;2023-04-24T07:23:33;9.50;80.90
69595;DHT22;56800;52.142;5.364;2023-04-24T07:26:00;9.50;80.90
69595;DHT22;56800;52.142;5.364;2023-04-24T07:28:28;9.50;81.00
69595;DHT22;56800;52.142;5.364;2023-04-24T07:30:58;9.50;80.90
69595;DHT22;56800;52.142;5.364;2023-04-24T07:33:26;9.50;81.00
69595;DHT22;56800;52.142;5.364;2023-04-24T07:35:54;9.50;81.00
69595;DHT22;56800;52.142;5.364;2023-04-24T07:38:22;9.50;81.00
69595;DHT22;56800;52.142;5.364;2023-04-24T07:40:50;9.40;81.00
69595;DHT22;56800;52.142;5.364;2023-04-24T07:43:19;9.40;81.10
69595;DHT22;56800;52.142;5.364;2023-04-24T07:45:46;9.50;81.20
69595;DHT22;56800;52.142;5.364;2023-04-24T07:48:13;9.40;81.10
69595;DHT22;56800;52.142;5.364;2023-04-24T07:50:42;9.50;81.20
69595;DHT22;56800;52.142;5.364;2023-04-24T07:53:09;9.50;81.10
69595;DHT22;56800;52.142;5.364;2023-04-24T07:55:37;9.50;81.20
69595;DHT22;56800;52.142;5.364;2023-04-24T07:58:04;9.50;81.10
69595;DHT22;56800;52.142;5.364;2023-04-24T08:00:30;9.50;81.20
69595;DHT22;56800;52.142;5.364;2023-04-24T08:02:57;9.60;81.30
69595;DHT22;56800;52.142;5.364;2023-04-24T08:05:24;9.60;81.30
69595;DHT22;56800;52.142;5.364;2023-04-24T08:07:54;9.60;81.20
69595;DHT22;56800;52.142;5.364;2023-04-24T08:10:24;9.60;81.20
69595;DHT22;56800;52.142;5.364;2023-04-24T08:12:53;9.60;81.20
69595;DHT22;56800;52.142;5.364;2023-04-24T08:15:21;9.60;81.10
69595;DHT22;56800;52.142;5.364;2023-04-24T08:17:48;9.60;81.00
69595;DHT22;56800;52.142;5.364;2023-04-24T08:20:15;9.60;81.00
69595;DHT22;56800;52.142;5.364;2023-04-24T08:22:42;9.50;80.90
69595;DHT22;56800;52.142;5.364;2023-04-24T08:25:10;9.50;81.00
69595;DHT22;56800;52.142;5.364;2023-04-24T08:27:37;9.50;80.80
69595;DHT22;56800;52.142;5.364;2023-04-24T08:30:06;9.40;80.70
69595;DHT22;56800;52.142;5.364;2023-04-24T08:32:33;9.30;80.80
69595;DHT22;56800;52.142;5.364;2023-04-24T08:35:00;9.30;80.90
69595;DHT22;56800;52.142;5.364;2023-04-24T08:37:27;9.30;81.20
69595;DHT22;56800;52.142;5.364;2023-04-24T08:39:54;9.30;81.30
69595;DHT22;56800;52.142;5.364;2023-04-24T08:42:21;9.40;81.50
69595;DHT22;56800;52.142;5.364;2023-04-24T08:44:49;9.40;81.60
69595;DHT22;56800;52.142;5.364;2023-04-24T08:47:16;9.40;81.50
69595;DHT22;56800;52.142;5.364;2023-04-24T08:49:44;9.50;81.40
69595;DHT22;56800;52.142;5.364;2023-04-24T08:52:12;9.40;81.00
69595;DHT22;56800;52.142;5.364;2023-04-24T08:54:39;9.50;81.00
69595;DHT22;56800;52.142;5.364;2023-04-24T08:57:08;9.50;80.90
69595;DHT22;56800;52.142;5.364;2023-04-24T08:59:38;9.50;80.70
69595;DHT22;56800;52.142;5.364;2023-04-24T09:02:05;9.50;80.70
69595;DHT22;56800;52.142;5.364;2023-04-24T09:04:33;9.50;80.40
69595;DHT22;56800;52.142;5.364;2023-04-24T09:07:02;9.50;80.20
69595;DHT22;56800;52.142;5.364;2023-04-24T09:09:30;9.50;80.00
69595;DHT22;56800;52.142;5.364;2023-04-24T09:12:00;9.50;80.60
69595;DHT22;56800;52.142;5.364;2023-04-24T09:14:27;9.50;79.70
69595;DHT22;56800;52.142;5.364;2023-04-24T09:16:55;9.50;79.80
69595;DHT22;56800;52.142;5.364;2023-04-24T09:19:21;9.50;79.80
69595;DHT22;56800;52.142;5.364;2023-04-24T09:21:48;9.60;79.90
69595;DHT22;56800;52.142;5.364;2023-04-24T09:24:19;9.70;80.00
69595;DHT22;56800;52.142;5.364;2023-04-24T09:26:56;9.80;80.00
69595;DHT22;56800;52.142;5.364;2023-04-24T09:29:24;9.90;79.90
69595;DHT22;56800;52.142;5.364;2023-04-24T09:31:51;10.00;79.50
69595;DHT22;56800;52.142;5.364;2023-04-24T09:34:26;10.10;79.20
69595;DHT22;56800;52.142;5.364;2023-04-24T09:36:54;10.20;79.30
69595;DHT22;56800;52.142;5.364;2023-04-24T09:39:21;10.30;79.20
69595;DHT22;56800;52.142;5.364;2023-04-24T09:41:56;10.40;79.00
69595;DHT22;56800;52.142;5.364;2023-04-24T09:44:28;10.60;78.70
69595;DHT22;56800;52.142;5.364;2023-04-24T09:46:56;10.60;77.50
69595;DHT22;56800;52.142;5.364;2023-04-24T09:51:52;10.50;75.90
69595;DHT22;56800;52.142;5.364;2023-04-24T09:54:20;10.30;75.70
69595;DHT22;56800;52.142;5.364;2023-04-24T09:56:50;10.20;75.50
69595;DHT22;56800;52.142;5.364;2023-04-24T09:59:19;10.10;75.50
69595;DHT22;56800;52.142;5.364;2023-04-24T10:01:51;10.10;75.80
69595;DHT22;56800;52.142;5.364;2023-04-24T10:04:22;10.10;75.90
69595;DHT22;56800;52.142;5.364;2023-04-24T10:06:53;10.20;76.10
69595;DHT22;56800;52.142;5.364;2023-04-24T10:09:25;10.20;76.00
69595;DHT22;56800;52.142;5.364;2023-04-24T10:11:53;10.30;75.80
69595;DHT22;56800;52.142;5.364;2023-04-24T10:14:22;10.40;75.90
69595;DHT22;56800;52.142;5.364;2023-04-24T10:16:50;10.50;75.70
69595;DHT22;56800;52.142;5.364;2023-04-24T10:19:17;10.60;75.30
69595;DHT22;56800;52.142;5.364;2023-04-24T10:21:47;10.60;74.30
69595;DHT22;56800;52.142;5.364;2023-04-24T10:24:16;10.60;74.40
69595;DHT22;56800;52.142;5.364;2023-04-24T10:26:44;10.50;74.00
69595;DHT22;56800;52.142;5.364;2023-04-24T10:29:13;10.50;74.00
69595;DHT22;56800;52.142;5.364;2023-04-24T10:31:40;10.60;74.10
69595;DHT22;56800;52.142;5.364;2023-04-24T10:34:09;10.70;74.40
69595;DHT22;56800;52.142;5.364;2023-04-24T10:36:40;10.80;74.30
69595;DHT22;56800;52.142;5.364;2023-04-24T10:39:10;10.90;74.10
69595;DHT22;56800;52.142;5.364;2023-04-24T10:41:38;11.00;74.00
69595;DHT22;56800;52.142;5.364;2023-04-24T10:44:09;11.20;73.90
69595;DHT22;56800;52.142;5.364;2023-04-24T10:46:38;11.40;73.30
69595;DHT22;56800;52.142;5.364;2023-04-24T10:49:08;11.40;72.10
69595;DHT22;56800;52.142;5.364;2023-04-24T10:51:52;11.30;71.90
69595;DHT22;56800;52.142;5.364;2023-04-24T10:54:29;11.30;71.60
69595;DHT22;56800;52.142;5.364;2023-04-24T10:59:46;11.10;71.70
69595;DHT22;56800;52.142;5.364;2023-04-24T11:02:17;11.10;71.90
69595;DHT22;56800;52.142;5.364;2023-04-24T11:04:45;11.10;71.80
69595;DHT22;56800;52.142;5.364;2023-04-24T11:07:12;11.10;71.80
69595;DHT22;56800;52.142;5.364;2023-04-24T11:09:42;11.10;71.70
69595;DHT22;56800;52.142;5.364;2023-04-24T11:12:11;11.00;71.70
69595;DHT22;56800;52.142;5.364;2023-04-24T11:15:01;10.90;71.80
69595;DHT22;56800;52.142;5.364;2023-04-24T11:20:08;10.80;72.10
69595;DHT22;56800;52.142;5.364;2023-04-24T11:22:54;10.70;72.40
69595;DHT22;56800;52.142;5.364;2023-04-24T11:25:22;10.50;72.60
69595;DHT22;56800;52.142;5.364;2023-04-24T11:27:50;10.50;73.20
69595;DHT22;56800;52.142;5.364;2023-04-24T11:30:18;10.60;73.70
69595;DHT22;56800;52.142;5.364;2023-04-24T11:32:50;10.80;74.60
69595;DHT22;56800;52.142;5.364;2023-04-24T11:35:20;11.10;74.90
69595;DHT22;56800;52.142;5.364;2023-04-24T11:37:52;11.50;74.80
69595;DHT22;56800;52.142;5.364;2023-04-24T11:40:22;11.70;74.00
69595;DHT22;56800;52.142;5.364;2023-04-24T11:42:51;11.80;72.40
69595;DHT22;56800;52.142;5.364;2023-04-24T11:45:23;11.80;72.40
69595;DHT22;56800;52.142;5.364;2023-04-24T11:47:50;11.90;72.80
69595;DHT22;56800;52.142;5.364;2023-04-24T11:50:19;12.00;72.30
69595;DHT22;56800;52.142;5.364;2023-04-24T11:52:48;12.00;71.30
69595;DHT22;56800;52.142;5.364;2023-04-24T11:57:59;12.20;70.40
69595;DHT22;56800;52.142;5.364;2023-04-24T12:00:31;12.30;70.10
69595;DHT22;56800;52.142;5.364;2023-04-24T12:03:08;12.40;70.10
69595;DHT22;56800;52.142;5.364;2023-04-24T12:05:36;12.40;69.70
69595;DHT22;56800;52.142;5.364;2023-04-24T12:08:04;12.50;69.20
69595;DHT22;56800;52.142;5.364;2023-04-24T12:10:32;12.40;68.20
69595;DHT22;56800;52.142;5.364;2023-04-24T12:12:59;12.20;67.70
69595;DHT22;56800;52.142;5.364;2023-04-24T12:15:27;12.00;67.80
69595;DHT22;56800;52.142;5.364;2023-04-24T12:17:55;12.00;68.00
69595;DHT22;56800;52.142;5.364;2023-04-24T12:20:30;11.90;68.40
69595;DHT22;56800;52.142;5.364;2023-04-24T12:22:59;11.90;67.90
69595;DHT22;56800;52.142;5.364;2023-04-24T12:25:31;11.90;67.90
69595;DHT22;56800;52.142;5.364;2023-04-24T12:30:39;11.80;68.10
69595;DHT22;56800;52.142;5.364;2023-04-24T12:33:06;11.80;68.60
69595;DHT22;56800;52.142;5.364;2023-04-24T12:35:33;11.90;67.70
69595;DHT22;56800;52.142;5.364;2023-04-24T12:38:06;11.90;67.00
69595;DHT22;56800;52.142;5.364;2023-04-24T12:40:33;11.70;66.40
69595;DHT22;56800;52.142;5.364;2023-04-24T12:43:00;11.60;66.50
69595;DHT22;56800;52.142;5.364;2023-04-24T12:45:27;11.60;66.50
69595;DHT22;56800;52.142;5.364;2023-04-24T12:47:54;11.50;66.60
69595;DHT22;56800;52.142;5.364;2023-04-24T12:50:21;11.40;66.70
69595;DHT22;56800;52.142;5.364;2023-04-24T12:52:47;11.30;66.90
69595;DHT22;56800;52.142;5.364;2023-04-24T12:55:14;11.30;67.20
69595;DHT22;56800;52.142;5.364;2023-04-24T12:57:41;11.30;67.10
69595;DHT22;56800;52.142;5.364;2023-04-24T13:00:08;11.20;67.00
69595;DHT22;56800;52.142;5.364;2023-04-24T13:02:35;11.10;66.90
69595;DHT22;56800;52.142;5.364;2023-04-24T13:05:03;11.00;67.30
69595;DHT22;56800;52.142;5.364;2023-04-24T13:07:30;10.80;67.70
69595;DHT22;56800;52.142;5.364;2023-04-24T13:09:56;10.70;68.20
69595;DHT22;56800;52.142;5.364;2023-04-24T13:12:24;10.70;68.50
69595;DHT22;56800;52.142;5.364;2023-04-24T13:14:52;10.70;68.60
69595;DHT22;56800;52.142;5.364;2023-04-24T13:17:19;10.70;69.00
69595;DHT22;56800;52.142;5.364;2023-04-24T13:19:46;10.70;69.70
69595;DHT22;56800;52.142;5.364;2023-04-24T13:22:13;10.80;68.90
69595;DHT22;56800;52.142;5.364;2023-04-24T13:24:39;10.80;68.70
69595;DHT22;56800;52.142;5.364;2023-04-24T13:27:08;10.90;69.00
69595;DHT22;56800;52.142;5.364;2023-04-24T13:29:36;11.30;70.10
69595;DHT22;56800;52.142;5.364;2023-04-24T13:32:03;11.60;69.30
69595;DHT22;56800;52.142;5.364;2023-04-24T13:34:30;11.80;68.60
69595;DHT22;56800;52.142;5.364;2023-04-24T13:36:58;11.90;68.00
69595;DHT22;56800;52.142;5.364;2023-04-24T13:39:25;11.90;67.50
69595;DHT22;56800;52.142;5.364;2023-04-24T13:41:53;11.90;67.00
69595;DHT22;56800;52.142;5.364;2023-04-24T13:44:21;11.90;66.20
69595;DHT22;56800;52.142;5.364;2023-04-24T13:46:52;11.80;65.90
69595;DHT22;56800;52.142;5.364;2023-04-24T13:49:21;11.90;66.30
69595;DHT22;56800;52.142;5.364;2023-04-24T13:51:48;12.20;67.00
69595;DHT22;56800;52.142;5.364;2023-04-24T13:54:14;12.50;65.80
69595;DHT22;56800;52.142;5.364;2023-04-24T13:56:41;12.50;64.40
69595;DHT22;56800;52.142;5.364;2023-04-24T13:59:08;12.50;64.40
69595;DHT22;56800;52.142;5.364;2023-04-24T14:01:35;12.70;64.50
69595;DHT22;56800;52.142;5.364;2023-04-24T14:04:02;12.80;63.40
69595;DHT22;56800;52.142;5.364;2023-04-24T14:06:29;12.70;62.90
69595;DHT22;56800;52.142;5.364;2023-04-24T14:08:56;12.80;64.40
69595;DHT22;56800;52.142;5.364;2023-04-24T14:11:23;13.00;63.60
69595;DHT22;56800;52.142;5.364;2023-04-24T14:13:50;13.10;62.70
69595;DHT22;56800;52.142;5.364;2023-04-24T14:16:16;12.90;61.50
69595;DHT22;56800;52.142;5.364;2023-04-24T14:18:43;12.70;61.20
69595;DHT22;56800;52.142;5.364;2023-04-24T14:21:10;12.60;61.70
69595;DHT22;56800;52.142;5.364;2023-04-24T14:23:36;12.70;62.50
69595;DHT22;56800;52.142;5.364;2023-04-24T14:26:03;12.80;62.80
69595;DHT22;56800;52.142;5.364;2023-04-24T14:28:30;12.80;62.40
69595;DHT22;56800;52.142;5.364;2023-04-24T14:30:57;12.70;61.80
69595;DHT22;56800;52.142;5.364;2023-04-24T14:33:23;12.60;61.70
69595;DHT22;56800;52.142;5.364;2023-04-24T14:35:50;12.40;62.20
69595;DHT22;56800;52.142;5.364;2023-04-24T14:38:17;12.30;61.80
69595;DHT22;56800;52.142;5.364;2023-04-24T14:40:44;12.30;61.70
69595;DHT22;56800;52.142;5.364;2023-04-24T14:43:31;12.10;62.00
69595;DHT22;56800;52.142;5.364;2023-04-24T14:45:59;12.10;62.30
69595;DHT22;56800;52.142;5.364;2023-04-24T14:48:26;12.10;62.50
69595;DHT22;56800;52.142;5.364;2023-04-24T14:50:53;12.10;62.70
69595;DHT22;56800;52.142;5.364;2023-04-24T14:53:20;12.00;62.00
69595;DHT22;56800;52.142;5.364;2023-04-24T14:55:47;11.90;62.50
69595;DHT22;56800;52.142;5.364;2023-04-24T14:58:13;11.90;63.10
69595;DHT22;56800;52.142;5.364;2023-04-24T15:00:40;11.90;63.30
69595;DHT22;56800;52.142;5.364;2023-04-24T15:03:07;11.80;63.30
69595;DHT22;56800;52.142;5.364;2023-04-24T15:05:35;11.80;63.20
69595;DHT22;56800;52.142;5.364;2023-04-24T15:08:03;11.60;63.30
69595;DHT22;56800;52.142;5.364;2023-04-24T15:10:30;11.50;63.30
69595;DHT22;56800;52.142;5.364;2023-04-24T15:12:57;11.30;63.70
69595;DHT22;56800;52.142;5.364;2023-04-24T15:15:24;11.10;64.30
69595;DHT22;56800;52.142;5.364;2023-04-24T15:17:50;10.90;64.80
69595;DHT22;56800;52.142;5.364;2023-04-24T15:20:17;10.80;65.60
69595;DHT22;56800;52.142;5.364;2023-04-24T15:22:44;10.70;65.90
69595;DHT22;56800;52.142;5.364;2023-04-24T15:25:11;10.70;66.00
69595;DHT22;56800;52.142;5.364;2023-04-24T15:27:44;10.70;66.20
69595;DHT22;56800;52.142;5.364;2023-04-24T15:30:12;10.70;66.30
69595;DHT22;56800;52.142;5.364;2023-04-24T15:32:39;10.80;66.50
69595;DHT22;56800;52.142;5.364;2023-04-24T15:35:07;10.90;66.40
69595;DHT22;56800;52.142;5.364;2023-04-24T15:37:36;11.00;66.90
69595;DHT22;56800;52.142;5.364;2023-04-24T15:40:04;11.20;66.90
69595;DHT22;56800;52.142;5.364;2023-04-24T15:42:34;11.50;66.80
69595;DHT22;56800;52.142;5.364;2023-04-24T15:45:02;11.60;65.70
69595;DHT22;56800;52.142;5.364;2023-04-24T15:47:29;11.80;65.40
69595;DHT22;56800;52.142;5.364;2023-04-24T15:49:57;11.90;64.70